createdAt,value
2019-03-29T00:00:01.156Z,102364.31
2019-03-29T00:00:40.176Z,102360.48
2019-03-29T00:01:11.780Z,102350.08
2019-03-29T00:01:43.039Z,102365.41
2019-03-29T00:02:14.295Z,102365.87
2019-03-29T00:02:45.535Z,102343.09
2019-03-29T00:03:16.871Z,102343.09
2019-03-29T00:03:48.135Z,102346.81
2019-03-29T00:04:19.375Z,102350.91
2019-03-29T00:04:50.614Z,102359.11
2019-03-29T00:05:21.900Z,102352.12
2019-03-29T00:05:53.122Z,102347.12
2019-03-29T00:06:24.505Z,102355.24
2019-03-29T00:06:55.847Z,102357.45
2019-03-29T00:07:39.020Z,102355.40
2019-03-29T00:08:00.193Z,102363.27
2019-03-29T00:08:31.423Z,102367.79
2019-03-29T00:09:05.763Z,102367.79
2019-03-29T00:09:37.048Z,102357.81
2019-03-29T00:10:08.343Z,102357.46
2019-03-29T00:10:39.511Z,102360.17
2019-03-29T00:11:10.745Z,102362.86
2019-03-29T00:11:41.924Z,102331.75
2019-03-29T00:12:13.137Z,102346.82
2019-03-29T00:12:44.315Z,102349.94
2019-03-29T00:13:15.547Z,102352.56
2019-03-29T00:13:46.717Z,102351.72
2019-03-29T00:14:17.940Z,102328.53
2019-03-29T00:14:49.102Z,102345.16
2019-03-29T00:15:20.337Z,102340.92
2019-03-29T00:15:51.924Z,102346.16
2019-03-29T00:16:23.144Z,102346.16
2019-03-29T00:16:54.494Z,102341.02
2019-03-29T00:17:25.819Z,102341.02
2019-03-29T00:17:56.995Z,102348.53
2019-03-29T00:18:28.218Z,102335.03
2019-03-29T00:18:59.402Z,102346.01
2019-03-29T00:19:30.604Z,102347.81
2019-03-29T00:20:06.195Z,102347.81
2019-03-29T00:20:37.668Z,102351.75
2019-03-29T00:21:08.884Z,102336.08
2019-03-29T00:21:40.176Z,102327.16
2019-03-29T00:22:11.776Z,102356.50
2019-03-29T00:22:42.979Z,102356.50
2019-03-29T00:23:14.194Z,102348.63
2019-03-29T00:23:45.388Z,102346.06
2019-03-29T00:24:16.584Z,102311.50
2019-03-29T00:24:47.775Z,102347.97
2019-03-29T00:25:18.976Z,102345.35
2019-03-29T00:25:50.222Z,102322.16
2019-03-29T00:26:21.520Z,102322.16
2019-03-29T00:26:53.214Z,102350.66
2019-03-29T00:27:24.901Z,102324.84
2019-03-29T00:27:56.088Z,102343.78
2019-03-29T00:28:27.332Z,102345.50
2019-03-29T00:28:58.528Z,102346.81
2019-03-29T00:29:30.723Z,102345.00
2019-03-29T00:30:02.109Z,102342.07
2019-03-29T00:30:33.315Z,102346.50
2019-03-29T00:31:04.527Z,102340.76
2019-03-29T00:31:35.740Z,102341.66
2019-03-29T00:32:06.945Z,102343.03
2019-03-29T00:32:39.145Z,102339.95
2019-03-29T00:33:10.369Z,102338.23
2019-03-29T00:33:41.833Z,102335.52
2019-03-29T00:34:13.048Z,102335.52
2019-03-29T00:34:44.287Z,102334.61
2019-03-29T00:35:15.561Z,102335.83
2019-03-29T00:35:46.825Z,102337.14
2019-03-29T00:36:18.242Z,102341.98
2019-03-29T00:36:49.405Z,102333.15
2019-03-29T00:37:20.633Z,102337.08
2019-03-29T00:37:53.844Z,102333.05
2019-03-29T00:38:25.074Z,102326.91
2019-03-29T00:38:56.240Z,102336.98
2019-03-29T00:39:27.485Z,102330.93
2019-03-29T00:39:58.659Z,102332.73
2019-03-29T00:40:29.893Z,102328.45
2019-03-29T00:41:01.070Z,102329.77
2019-03-29T00:41:32.288Z,102325.84
2019-03-29T00:42:03.468Z,102329.86
2019-03-29T00:42:34.692Z,102331.17
2019-03-29T00:43:05.885Z,102325.98
2019-03-29T00:43:37.080Z,102314.79
2019-03-29T00:44:08.332Z,102331.73
2019-03-29T00:44:39.571Z,102326.08
2019-03-29T00:45:10.834Z,102326.08
2019-03-29T00:45:42.066Z,102325.59
2019-03-29T00:46:13.316Z,102322.05
2019-03-29T00:46:44.546Z,102321.59
2019-03-29T00:47:15.784Z,102328.15
2019-03-29T00:47:47.030Z,102328.15
2019-03-29T00:48:18.206Z,102325.43
2019-03-29T00:48:49.435Z,102323.62
2019-03-29T00:49:20.608Z,102322.72
2019-03-29T00:49:51.805Z,102323.12
2019-03-29T00:50:22.987Z,102326.59
2019-03-29T00:50:54.553Z,102320.84
2019-03-29T00:51:25.757Z,102323.06
2019-03-29T00:51:56.990Z,102328.63
2019-03-29T00:52:28.155Z,102319.38
2019-03-29T00:52:59.378Z,102323.72
2019-03-29T00:53:30.547Z,102316.17
2019-03-29T00:54:02.060Z,102328.37
2019-03-29T00:54:33.502Z,102320.91
2019-03-29T00:55:05.203Z,102324.84
2019-03-29T00:55:36.480Z,102330.53
2019-03-29T00:56:07.722Z,102321.76
2019-03-29T00:56:39.114Z,102319.95
2019-03-29T00:57:10.499Z,102319.95
2019-03-29T00:57:41.721Z,102316.52
2019-03-29T00:58:12.887Z,102320.05
2019-03-29T00:58:44.146Z,102302.56
2019-03-29T00:59:15.321Z,102315.02
2019-03-29T00:59:46.547Z,102314.55
2019-03-29T01:00:17.740Z,102311.52
2019-03-29T01:00:48.965Z,102310.63
2019-03-29T01:01:20.131Z,102315.45
2019-03-29T01:01:51.368Z,102319.30
2019-03-29T01:02:22.550Z,102306.69
2019-03-29T01:02:54.883Z,102306.69
2019-03-29T01:03:26.063Z,102282.26
2019-03-29T01:03:58.296Z,102304.53
2019-03-29T01:04:29.464Z,102304.53
2019-03-29T01:05:00.761Z,102303.22
2019-03-29T01:05:32.002Z,102286.69
2019-03-29T01:06:03.232Z,102304.63
2019-03-29T01:06:34.394Z,102307.75
2019-03-29T01:07:05.623Z,102304.72
2019-03-29T01:07:36.790Z,102300.19
2019-03-29T01:08:10.490Z,102307.40
2019-03-29T01:08:41.660Z,102307.40
2019-03-29T01:09:12.900Z,102312.23
2019-03-29T01:09:44.065Z,102306.99
2019-03-29T01:10:15.287Z,102311.42
2019-03-29T01:10:46.458Z,102314.05
2019-03-29T01:11:17.656Z,102302.25
2019-03-29T01:11:48.847Z,102311.92
2019-03-29T01:12:20.050Z,102308.48
2019-03-29T01:12:51.213Z,102312.48
2019-03-29T01:13:22.446Z,102304.55
2019-03-29T01:13:53.632Z,102307.64
2019-03-29T01:14:25.069Z,102311.17
2019-03-29T01:14:56.204Z,102313.89
2019-03-29T01:15:27.474Z,102309.45
2019-03-29T01:15:58.647Z,102306.92
2019-03-29T01:16:29.859Z,102302.98
2019-03-29T01:17:01.031Z,102302.98
2019-03-29T01:17:32.250Z,102288.48
2019-03-29T01:18:03.478Z,102288.48
2019-03-29T01:18:34.711Z,102302.59
2019-03-29T01:19:05.971Z,102307.33
2019-03-29T01:19:37.132Z,102303.89
2019-03-29T01:20:08.936Z,102303.89
2019-03-29T01:20:40.083Z,102302.14
2019-03-29T01:21:11.295Z,102310.11
2019-03-29T01:21:42.447Z,102305.27
2019-03-29T01:22:13.639Z,102306.98
2019-03-29T01:22:44.793Z,102305.67
2019-03-29T01:23:15.997Z,102308.30
2019-03-29T01:23:47.153Z,102306.58
2019-03-29T01:24:18.361Z,102309.61
2019-03-29T01:24:49.528Z,102313.08
2019-03-29T01:25:20.723Z,102302.40
2019-03-29T01:25:51.881Z,102312.89
2019-03-29T01:26:23.083Z,102314.05
2019-03-29T01:26:54.247Z,102297.02
2019-03-29T01:27:25.442Z,102298.48
2019-03-29T01:27:56.585Z,102309.05
2019-03-29T01:28:28.012Z,102309.45
2019-03-29T01:28:59.213Z,102301.25
2019-03-29T01:29:31.065Z,102309.95
2019-03-29T01:30:06.196Z,102307.34
2019-03-29T01:30:37.396Z,102311.67
2019-03-29T01:31:09.051Z,102312.48
2019-03-29T01:31:40.940Z,102303.72
2019-03-29T01:32:12.229Z,102304.53
2019-03-29T01:32:43.390Z,102292.59
2019-03-29T01:33:14.568Z,102313.65
2019-03-29T01:33:45.725Z,102310.12
2019-03-29T01:34:17.138Z,102305.69
2019-03-29T01:34:48.572Z,102310.02
2019-03-29T01:35:19.775Z,102285.53
2019-03-29T01:35:50.953Z,102285.62
2019-03-29T01:36:22.116Z,102276.05
2019-03-29T01:36:53.892Z,102276.05
2019-03-29T01:37:25.288Z,102301.91
2019-03-29T01:37:57.470Z,102288.34
2019-03-29T01:38:28.655Z,102288.34
2019-03-29T01:38:59.837Z,102292.33
2019-03-29T01:39:31.019Z,102302.00
2019-03-29T01:40:03.399Z,102302.00
2019-03-29T01:40:35.157Z,102302.81
2019-03-29T01:41:06.553Z,102296.35
2019-03-29T01:41:37.713Z,102296.35
2019-03-29T01:42:08.906Z,102303.00
2019-03-29T01:42:40.075Z,102279.73
2019-03-29T01:43:11.240Z,102279.73
2019-03-29T01:43:43.410Z,102290.05
2019-03-29T01:44:14.597Z,102298.63
2019-03-29T01:44:45.773Z,102298.63
2019-03-29T01:45:16.953Z,102291.77
2019-03-29T01:45:48.389Z,102294.88
2019-03-29T01:46:20.628Z,102298.88
2019-03-29T01:46:51.808Z,102291.86
2019-03-29T01:47:23.002Z,102297.25
2019-03-29T01:47:54.309Z,102295.53
2019-03-29T01:48:25.508Z,102292.91
2019-03-29T01:48:56.683Z,102292.97
2019-03-29T01:49:29.885Z,102287.72
2019-03-29T01:50:01.068Z,102292.56
2019-03-29T01:50:32.240Z,102291.66
2019-03-29T01:51:03.377Z,102278.48
2019-03-29T01:51:34.538Z,102283.33
2019-03-29T01:52:05.706Z,102289.48
2019-03-29T01:52:36.888Z,102287.72
2019-03-29T01:53:08.041Z,102293.88
2019-03-29T01:53:39.234Z,102288.16
2019-03-29T01:54:10.433Z,102288.16
2019-03-29T01:54:41.636Z,102286.26
2019-03-29T01:55:12.780Z,102285.86
2019-03-29T01:55:44.014Z,102281.42
2019-03-29T01:56:15.238Z,102284.95
2019-03-29T01:56:46.473Z,102285.86
2019-03-29T01:57:17.702Z,102284.55
2019-03-29T01:57:48.882Z,102284.55
2019-03-29T01:58:20.015Z,102279.80
2019-03-29T01:58:53.118Z,102281.61
2019-03-29T01:59:24.462Z,102271.52
2019-03-29T01:59:55.631Z,102274.61
2019-03-29T02:00:32.825Z,102274.70
2019-03-29T02:01:04.026Z,102274.20
2019-03-29T02:01:35.221Z,102272.08
2019-03-29T02:02:58.104Z,102270.75
2019-03-29T02:03:29.333Z,102270.11
2019-03-29T02:04:00.555Z,102275.84
2019-03-29T02:04:31.776Z,102276.75
2019-03-29T02:05:06.689Z,102275.44
2019-03-29T02:05:37.907Z,102274.63
2019-03-29T02:06:09.125Z,102282.05
2019-03-29T02:06:40.355Z,102276.41
2019-03-29T02:07:12.061Z,102277.31
2019-03-29T02:07:43.274Z,102276.81
2019-03-29T02:08:14.437Z,102278.62
2019-03-29T02:08:45.673Z,102282.96
2019-03-29T02:09:16.893Z,102279.94
2019-03-29T02:09:48.105Z,102284.36
2019-03-29T02:10:19.343Z,102284.27
2019-03-29T02:10:50.567Z,102279.53
2019-03-29T02:11:21.796Z,102273.23
2019-03-29T02:11:53.043Z,102272.06
2019-03-29T02:12:24.525Z,102272.06
2019-03-29T02:12:55.986Z,102273.87
2019-03-29T02:13:27.127Z,102280.02
2019-03-29T02:13:58.339Z,102277.81
2019-03-29T02:14:29.492Z,102280.43
2019-03-29T02:15:00.696Z,102273.38
2019-03-29T02:15:31.871Z,102276.09
2019-03-29T02:16:03.165Z,102275.19
2019-03-29T02:16:35.192Z,102284.86
2019-03-29T02:17:06.418Z,102274.69
2019-03-29T02:17:37.562Z,102275.28
2019-03-29T02:18:08.766Z,102282.70
2019-03-29T02:18:39.985Z,102281.39
2019-03-29T02:19:11.219Z,102278.86
2019-03-29T02:19:42.366Z,102279.77
2019-03-29T02:20:13.552Z,102281.98
2019-03-29T02:20:44.736Z,102277.23
2019-03-29T02:21:16.905Z,102278.95
2019-03-29T02:21:48.236Z,102282.88
2019-03-29T02:22:19.440Z,102279.36
2019-03-29T02:22:50.610Z,102282.39
2019-03-29T02:23:21.791Z,102278.36
2019-03-29T02:23:52.962Z,102279.27
2019-03-29T02:24:24.381Z,102281.08
2019-03-29T02:24:55.553Z,102281.89
2019-03-29T02:25:27.337Z,102279.77
2019-03-29T02:25:58.607Z,102278.36
2019-03-29T02:26:29.773Z,102275.74
2019-03-29T02:27:01.035Z,102274.42
2019-03-29T02:27:32.433Z,102265.01
2019-03-29T02:28:03.623Z,102250.61
2019-03-29T02:28:34.782Z,102277.14
2019-03-29T02:29:05.990Z,102271.40
2019-03-29T02:29:37.207Z,102272.70
2019-03-29T02:30:08.452Z,102274.02
2019-03-29T02:30:39.595Z,102273.52
2019-03-29T02:31:10.855Z,102274.83
2019-03-29T02:31:42.734Z,102270.03
2019-03-29T02:32:14.097Z,102263.87
2019-03-29T02:32:45.255Z,102266.50
2019-03-29T02:33:16.474Z,102268.22
2019-03-29T02:33:48.460Z,102270.84
2019-03-29T02:34:19.931Z,102275.69
2019-03-29T02:34:51.093Z,102273.87
2019-03-29T02:35:22.289Z,102270.44
2019-03-29T02:35:53.455Z,102272.66
2019-03-29T02:36:24.727Z,102259.36
2019-03-29T02:36:55.871Z,102270.44
2019-03-29T02:37:28.627Z,102271.25
2019-03-29T02:38:00.410Z,102267.17
2019-03-29T02:38:31.609Z,102264.55
2019-03-29T02:39:03.758Z,102270.61
2019-03-29T02:39:35.367Z,102271.42
2019-03-29T02:40:06.513Z,102271.42
2019-03-29T02:40:37.753Z,102267.98
2019-03-29T02:41:09.001Z,102276.66
2019-03-29T02:41:40.224Z,102273.63
2019-03-29T02:42:11.378Z,102267.83
2019-03-29T02:42:42.921Z,102262.99
2019-03-29T02:43:14.561Z,102266.02
2019-03-29T02:43:45.763Z,102261.59
2019-03-29T02:44:16.914Z,102270.36
2019-03-29T02:44:48.136Z,102266.34
2019-03-29T02:45:19.299Z,102262.81
2019-03-29T02:45:50.489Z,102262.00
2019-03-29T02:46:21.635Z,102263.31
2019-03-29T02:46:53.801Z,102267.24
2019-03-29T02:47:25.383Z,102271.27
2019-03-29T02:47:56.586Z,102268.14
2019-03-29T02:48:27.891Z,102262.91
2019-03-29T02:48:59.072Z,102260.69
2019-03-29T02:49:30.352Z,102258.47
2019-03-29T02:50:01.627Z,102264.63
2019-03-29T02:50:32.806Z,102259.38
2019-03-29T02:51:04.784Z,102262.00
2019-03-29T02:51:36.450Z,102255.03
2019-03-29T02:52:07.610Z,102258.97
2019-03-29T02:52:38.771Z,102259.88
2019-03-29T02:53:09.927Z,102261.19
2019-03-29T02:53:41.104Z,102258.56
2019-03-29T02:54:13.381Z,102259.88
2019-03-29T02:54:44.540Z,102261.19
2019-03-29T02:55:15.713Z,102264.22
2019-03-29T02:55:46.894Z,102255.20
2019-03-29T02:56:18.103Z,102263.81
2019-03-29T02:56:49.399Z,102265.02
2019-03-29T02:57:20.632Z,102262.00
2019-03-29T02:57:51.860Z,102259.38
2019-03-29T02:58:23.094Z,102257.16
2019-03-29T02:58:54.353Z,102239.73
2019-03-29T02:59:25.523Z,102262.09
2019-03-29T02:59:56.743Z,102262.09
2019-03-29T03:00:27.885Z,102255.53
2019-03-29T03:00:59.110Z,102254.63
2019-03-29T03:01:30.256Z,102265.21
2019-03-29T03:02:01.472Z,102262.99
2019-03-29T03:02:33.628Z,102260.78
2019-03-29T03:03:04.903Z,102253.98
2019-03-29T03:03:36.113Z,102266.93
2019-03-29T03:04:07.285Z,102263.90
2019-03-29T03:04:38.507Z,102269.14
2019-03-29T03:05:09.737Z,102262.59
2019-03-29T03:05:40.976Z,102265.21
2019-03-29T03:06:12.196Z,102265.77
2019-03-29T03:06:43.545Z,102264.36
2019-03-29T03:07:14.762Z,102266.11
2019-03-29T03:07:45.992Z,102267.83
2019-03-29T03:08:17.216Z,102265.21
2019-03-29T03:08:48.508Z,102262.59
2019-03-29T03:09:19.641Z,102271.82
2019-03-29T03:09:50.838Z,102268.73
2019-03-29T03:10:21.978Z,102268.30
2019-03-29T03:10:53.216Z,102266.98
2019-03-29T03:11:24.486Z,102269.20
2019-03-29T03:11:55.698Z,102275.34
2019-03-29T03:12:26.843Z,102273.63
2019-03-29T03:12:58.142Z,102276.75
2019-03-29T03:13:29.331Z,102267.17
2019-03-29T03:14:00.525Z,102271.10
2019-03-29T03:14:31.696Z,102267.63
2019-03-29T03:15:07.070Z,102271.25
2019-03-29T03:15:38.234Z,102272.56
2019-03-29T03:16:09.427Z,102274.42
2019-03-29T03:16:40.573Z,102274.42
2019-03-29T03:17:11.797Z,102270.90
2019-03-29T03:17:43.011Z,102272.66
2019-03-29T03:18:14.207Z,102266.97
2019-03-29T03:18:45.378Z,102268.37
2019-03-29T03:19:16.566Z,102269.27
2019-03-29T03:19:47.720Z,102267.06
2019-03-29T03:20:18.902Z,102268.37
2019-03-29T03:20:50.078Z,102267.56
2019-03-29T03:21:21.267Z,102267.56
2019-03-29T03:21:52.440Z,102268.46
2019-03-29T03:22:23.612Z,102266.74
2019-03-29T03:22:54.893Z,102268.46
2019-03-29T03:23:26.060Z,102267.56
2019-03-29T03:23:57.323Z,102266.65
2019-03-29T03:24:28.493Z,102265.34
2019-03-29T03:24:59.688Z,102264.03
2019-03-29T03:25:30.876Z,102260.50
2019-03-29T03:26:02.061Z,102266.24
2019-03-29T03:26:33.278Z,102264.94
2019-03-29T03:27:04.457Z,102269.18
2019-03-29T03:27:35.627Z,102263.53
2019-03-29T03:28:06.822Z,102261.72
2019-03-29T03:28:37.982Z,102257.14
2019-03-29T03:29:09.141Z,102266.56
2019-03-29T03:29:40.345Z,102260.41
2019-03-29T03:30:11.618Z,102261.66
2019-03-29T03:30:42.787Z,102263.47
2019-03-29T03:31:13.969Z,102257.33
2019-03-29T03:31:45.167Z,102258.14
2019-03-29T03:32:16.661Z,102259.45
2019-03-29T03:32:47.951Z,102255.11
2019-03-29T03:33:19.228Z,102254.20
2019-03-29T03:33:50.618Z,102260.77
2019-03-29T03:34:21.941Z,102255.52
2019-03-29T03:34:53.139Z,102251.09
2019-03-29T03:35:24.356Z,102254.11
2019-03-29T03:35:55.552Z,102255.83
2019-03-29T03:36:26.823Z,102255.83
2019-03-29T03:36:58.034Z,102251.89
2019-03-29T03:37:29.212Z,102255.42
2019-03-29T03:38:00.387Z,102253.21
2019-03-29T03:38:31.570Z,102254.52
2019-03-29T03:39:06.187Z,102256.33
2019-03-29T03:39:37.361Z,102254.11
2019-03-29T03:40:08.635Z,102255.42
2019-03-29T03:40:39.812Z,102257.23
2019-03-29T03:41:10.998Z,102262.57
2019-03-29T03:41:42.174Z,102259.95
2019-03-29T03:42:13.361Z,102259.95
2019-03-29T03:42:44.552Z,102260.41
2019-03-29T03:43:15.820Z,102259.95
2019-03-29T03:43:46.989Z,102267.41
2019-03-29T03:44:18.207Z,102262.57
2019-03-29T03:44:49.362Z,102254.30
2019-03-29T03:45:20.558Z,102263.94
2019-03-29T03:45:51.699Z,102259.59
2019-03-29T03:46:22.907Z,102266.16
2019-03-29T03:46:54.062Z,102258.28
2019-03-29T03:47:25.277Z,102265.34
2019-03-29T03:47:56.429Z,102262.31
2019-03-29T03:48:27.638Z,102267.56
2019-03-29T03:48:58.803Z,102264.52
2019-03-29T03:49:30.088Z,102261.00
2019-03-29T03:50:01.804Z,102265.44
2019-03-29T03:50:41.135Z,102262.72
2019-03-29T03:51:12.321Z,102261.31
2019-03-29T03:51:43.544Z,102261.31
2019-03-29T03:52:14.769Z,102263.94
2019-03-29T03:52:45.990Z,102261.31
2019-03-29T03:53:17.235Z,102256.47
2019-03-29T03:53:48.449Z,102261.72
2019-03-29T03:54:19.688Z,102267.41
2019-03-29T03:54:50.847Z,102262.16
2019-03-29T03:55:22.071Z,102260.77
2019-03-29T03:55:53.400Z,102260.77
2019-03-29T03:56:24.916Z,102263.38
2019-03-29T03:56:56.129Z,102266.97
2019-03-29T03:57:27.463Z,102263.03
2019-03-29T03:57:58.777Z,102269.27
2019-03-29T03:58:30.020Z,102263.13
2019-03-29T03:59:01.264Z,102265.84
2019-03-29T03:59:32.575Z,102270.17
2019-03-29T04:00:06.611Z,102271.89
2019-03-29T04:00:52.518Z,102272.30
2019-03-29T04:01:24.671Z,102270.90
2019-03-29T04:01:55.876Z,102269.59
2019-03-29T04:02:27.037Z,102266.09
2019-03-29T04:02:58.257Z,102275.74
2019-03-29T04:03:29.503Z,102268.28
2019-03-29T04:04:00.733Z,102270.44
2019-03-29T04:04:37.202Z,102265.19
2019-03-29T04:05:06.081Z,102271.16
2019-03-29T04:05:37.308Z,102268.95
2019-03-29T04:06:08.539Z,102267.17
2019-03-29T04:06:39.911Z,102267.17
2019-03-29T04:07:11.124Z,102268.95
2019-03-29T04:07:42.350Z,102265.86
2019-03-29T04:08:13.590Z,102274.63
2019-03-29T04:08:44.844Z,102270.20
2019-03-29T04:09:16.059Z,102279.88
2019-03-29T04:09:50.203Z,102275.44
2019-03-29T04:10:20.327Z,102270.70
2019-03-29T04:10:52.529Z,102272.88
2019-03-29T04:11:23.730Z,102280.34
2019-03-29T04:11:55.095Z,102268.13
2019-03-29T04:12:26.256Z,102270.75
2019-03-29T04:12:57.738Z,102271.16
2019-03-29T04:13:28.893Z,102274.19
2019-03-29T04:14:00.116Z,102275.94
2019-03-29T04:14:31.356Z,102269.38
2019-03-29T04:15:03.453Z,102270.61
2019-03-29T04:15:34.702Z,102267.48
2019-03-29T04:16:05.898Z,102272.73
2019-03-29T04:16:37.041Z,102274.04
2019-03-29T04:17:08.242Z,102276.16
2019-03-29T04:17:39.425Z,102266.93
2019-03-29T04:18:15.228Z,102277.92
2019-03-29T04:18:43.734Z,102273.08
2019-03-29T04:19:14.933Z,102277.47
2019-03-29T04:19:46.119Z,102270.05
2019-03-29T04:20:18.341Z,102276.16
2019-03-29T04:20:49.527Z,102273.54
2019-03-29T04:21:20.694Z,102275.76
2019-03-29T04:21:51.866Z,102274.04
2019-03-29T04:22:23.051Z,102274.94
2019-03-29T04:22:54.341Z,102275.84
2019-03-29T04:23:25.519Z,102277.16
2019-03-29T04:23:56.688Z,102279.78
2019-03-29T04:24:27.876Z,102267.98
2019-03-29T04:24:59.048Z,102271.51
2019-03-29T04:25:30.242Z,102274.54
2019-03-29T04:26:01.425Z,102273.23
2019-03-29T04:26:32.606Z,102274.04
2019-03-29T04:27:06.385Z,102271.91
2019-03-29T04:27:37.588Z,102276.34
2019-03-29T04:28:08.859Z,102276.75
2019-03-29T04:28:40.115Z,102274.94
2019-03-29T04:29:11.293Z,102255.20
2019-03-29T04:29:42.469Z,102277.66
2019-03-29T04:30:13.641Z,102275.03
2019-03-29T04:30:44.809Z,102270.70
2019-03-29T04:31:16.031Z,102276.81
2019-03-29T04:31:47.207Z,102274.78
2019-03-29T04:32:18.379Z,102269.94
2019-03-29T04:32:49.561Z,102273.87
2019-03-29T04:33:21.741Z,102270.84
2019-03-29T04:33:52.919Z,102273.52
2019-03-29T04:34:24.346Z,102270.50
2019-03-29T04:34:55.524Z,102270.50
2019-03-29T04:35:26.684Z,102251.60
2019-03-29T04:35:58.067Z,102272.66
2019-03-29T04:36:29.521Z,102274.37
2019-03-29T04:37:01.745Z,102268.72
2019-03-29T04:37:32.972Z,102264.29
2019-03-29T04:38:04.190Z,102271.40
2019-03-29T04:38:35.406Z,102273.96
2019-03-29T04:39:06.628Z,102270.09
2019-03-29T04:39:37.855Z,102272.66
2019-03-29T04:40:09.217Z,102268.28
2019-03-29T04:40:40.415Z,102264.34
2019-03-29T04:41:11.630Z,102274.37
2019-03-29T04:41:42.772Z,102270.90
2019-03-29T04:42:13.966Z,102267.87
2019-03-29T04:42:45.109Z,102272.70
2019-03-29T04:43:16.319Z,102268.77
2019-03-29T04:43:47.465Z,102270.17
2019-03-29T04:44:18.669Z,102271.09
2019-03-29T04:44:49.828Z,102268.05
2019-03-29T04:45:21.071Z,102264.12
2019-03-29T04:45:52.252Z,102267.56
2019-03-29T04:46:23.464Z,102261.50
2019-03-29T04:46:54.600Z,102266.34
2019-03-29T04:47:25.821Z,102265.48
2019-03-29T04:47:56.972Z,102260.73
2019-03-29T04:48:28.174Z,102266.48
2019-03-29T04:48:59.351Z,102271.32
2019-03-29T04:49:30.554Z,102266.48
2019-03-29T04:50:03.601Z,102266.98
2019-03-29T04:50:34.777Z,102265.58
2019-03-29T04:51:05.947Z,102260.09
2019-03-29T04:51:37.126Z,102265.48
2019-03-29T04:52:08.394Z,102267.70
2019-03-29T04:52:39.568Z,102268.11
2019-03-29T04:53:10.805Z,102265.08
2019-03-29T04:53:41.971Z,102258.52
2019-03-29T04:54:13.136Z,102265.48
2019-03-29T04:54:44.299Z,102269.52
2019-03-29T04:55:15.466Z,102271.78
2019-03-29T04:55:46.656Z,102266.12
2019-03-29T04:56:17.830Z,102266.12
2019-03-29T04:56:49.073Z,102268.34
2019-03-29T04:57:20.214Z,102270.97
2019-03-29T04:57:51.426Z,102268.75
2019-03-29T04:58:22.572Z,102267.85
2019-03-29T04:58:53.760Z,102271.50
2019-03-29T04:59:24.918Z,102269.38
2019-03-29T04:59:56.108Z,102269.88
2019-03-29T05:00:27.442Z,102277.80
2019-03-29T05:00:58.698Z,102270.42
2019-03-29T05:01:29.931Z,102271.74
2019-03-29T05:02:01.157Z,102272.15
2019-03-29T05:02:32.372Z,102279.52
2019-03-29T05:03:03.614Z,102270.69
2019-03-29T05:03:34.844Z,102278.20
2019-03-29T05:04:06.056Z,102269.93
2019-03-29T05:04:37.283Z,102275.17
2019-03-29T05:05:08.507Z,102279.61
2019-03-29T05:05:39.747Z,102275.67
2019-03-29T05:06:10.890Z,102274.77
2019-03-29T05:06:42.126Z,102279.61
2019-03-29T05:07:13.337Z,102276.08
2019-03-29T05:07:44.541Z,102278.80
2019-03-29T05:08:15.785Z,102277.08
2019-03-29T05:08:46.988Z,102283.20
2019-03-29T05:09:18.136Z,102283.20
2019-03-29T05:09:49.387Z,102281.88
2019-03-29T05:10:21.901Z,102283.63
2019-03-29T05:10:55.192Z,102283.55
2019-03-29T05:11:26.417Z,102283.14
2019-03-29T05:11:57.818Z,102285.36
2019-03-29T05:12:29.023Z,102284.05
2019-03-29T05:13:00.218Z,102287.57
2019-03-29T05:13:31.408Z,102293.13
2019-03-29T05:14:02.586Z,102286.48
2019-03-29T05:14:33.771Z,102283.86
2019-03-29T05:15:05.092Z,102284.36
2019-03-29T05:15:36.304Z,102282.64
2019-03-29T05:16:07.516Z,102286.66
2019-03-29T05:16:38.793Z,102284.05
2019-03-29T05:17:10.014Z,102284.05
2019-03-29T05:17:41.274Z,102283.20
2019-03-29T05:18:12.528Z,102279.26
2019-03-29T05:18:43.758Z,102285.00
2019-03-29T05:19:15.023Z,102281.56
2019-03-29T05:19:46.254Z,102284.69
2019-03-29T05:20:17.486Z,102282.06
2019-03-29T05:20:48.780Z,102285.64
2019-03-29T05:21:19.944Z,102281.80
2019-03-29T05:21:51.127Z,102277.45
2019-03-29T05:22:22.380Z,102273.58
2019-03-29T05:22:53.532Z,102280.23
2019-03-29T05:23:24.709Z,102280.72
2019-03-29T05:23:56.897Z,102281.22
2019-03-29T05:24:28.048Z,102279.00
2019-03-29T05:24:59.206Z,102279.82
2019-03-29T05:25:30.386Z,102289.41
2019-03-29T05:26:01.565Z,102281.54
2019-03-29T05:26:32.728Z,102289.00
2019-03-29T05:27:04.915Z,102281.13
2019-03-29T05:27:36.072Z,102290.31
2019-03-29T05:28:07.277Z,102286.88
2019-03-29T05:28:38.419Z,102286.88
2019-03-29T05:29:09.624Z,102291.28
2019-03-29T05:29:40.780Z,102284.31
2019-03-29T05:30:11.985Z,102284.81
2019-03-29T05:30:43.158Z,102294.48
2019-03-29T05:31:14.362Z,102286.70
2019-03-29T05:31:45.506Z,102289.38
2019-03-29T05:32:16.705Z,102289.79
2019-03-29T05:32:47.866Z,102289.38
2019-03-29T05:33:19.157Z,102290.29
2019-03-29T05:33:50.309Z,102289.38
2019-03-29T05:34:21.511Z,102284.95
2019-03-29T05:34:52.663Z,102282.83
2019-03-29T05:35:23.869Z,102283.23
2019-03-29T05:35:55.032Z,102288.48
2019-03-29T05:36:26.204Z,102286.76
2019-03-29T05:36:58.594Z,102285.86
2019-03-29T05:37:29.838Z,102284.54
2019-03-29T05:38:01.010Z,102282.33
2019-03-29T05:38:33.202Z,102295.04
2019-03-29T05:39:05.079Z,102288.02
2019-03-29T05:39:36.245Z,102289.73
2019-03-29T05:40:07.419Z,102286.20
2019-03-29T05:40:38.580Z,102280.87
2019-03-29T05:41:09.770Z,102288.34
2019-03-29T05:41:41.941Z,102287.43
2019-03-29T05:42:13.125Z,102283.49
2019-03-29T05:42:44.303Z,102287.84
2019-03-29T05:43:15.476Z,102285.30
2019-03-29T05:43:46.658Z,102283.49
2019-03-29T05:44:17.850Z,102288.74
2019-03-29T05:44:49.035Z,102283.49
2019-03-29T05:45:20.220Z,102285.30
2019-03-29T05:45:51.403Z,102282.68
2019-03-29T05:46:22.586Z,102280.95
2019-03-29T05:46:53.756Z,102285.80
2019-03-29T05:47:24.967Z,102284.89
2019-03-29T05:47:56.147Z,102282.19
2019-03-29T05:48:27.320Z,102287.52
2019-03-29T05:48:58.507Z,102287.58
2019-03-29T05:49:29.691Z,102286.70
2019-03-29T05:50:00.861Z,102282.83
2019-03-29T05:50:32.035Z,102281.51
2019-03-29T05:51:03.213Z,102286.44
2019-03-29T05:51:34.389Z,102291.34
2019-03-29T05:52:05.561Z,102285.27
2019-03-29T05:52:36.708Z,102290.61
2019-03-29T05:53:07.877Z,102290.17
2019-03-29T05:53:39.050Z,102283.61
2019-03-29T05:54:10.211Z,102284.05
2019-03-29T05:54:41.440Z,102290.17
2019-03-29T05:55:12.625Z,102285.77
2019-03-29T05:55:43.795Z,102290.61
2019-03-29T05:56:15.002Z,102288.86
2019-03-29T05:56:46.137Z,102294.10
2019-03-29T05:57:17.326Z,102293.23
2019-03-29T05:57:48.580Z,102290.61
2019-03-29T05:58:19.776Z,102287.90
2019-03-29T05:58:50.935Z,102289.30